Archival Weather

Agadez

Agadez, Niger (DRZA)

Report from: Friday, February 23, 2024 11:00 AM WAT
Current time: Wednesday, April 24, 2024 8:26 PM WAT

Current weather – Weather history – Daily summaries
Weather forecast

Temperature28.0°C (82.4°F)
Heat index26.6°C (79.9°F)
Dew point-9.0°C (15.8°F)
Winds 21 kts (10.8 m/s, 24.2 mph) East (100°)
Clouds Sky clear
Altimeter30.00 in.Hg (1016 mB)
Relative humidity8 %
Density altitude1,464 ft. (446 m)
Remarks Ceiling and visibility OK
Flight conditions Visual Meteorological Conditions
Raw dataDRZA 231000Z 10021KT CAVOK 28/M09 Q1016
An error has occurred. This application may no longer respond until reloaded. Reload 🗙